Time;durP1;ratioP1;P1;durP2;ratioP2;P2;SDS_P1;SDS_P2;PMS_P1;PMS_P2;Temp;Humidity;BMP_temperature;BMP_pressure;BME280_temperature;BME280_humidity;BME280_pressure;Samples;Min_cycle;Max_cycle;Signal;HPM_P1;HPM_P2
2023/07/29 00:01:02;;;;;;;3.38;2.25;;;;;;;16.17;86.31;93018.47;5069418;28;20036;-71
2023/07/29 00:03:29;;;;;;;3.75;1.92;;;;;;;16.11;85.56;93024.66;5063320;28;20095;-71
2023/07/29 00:05:56;;;;;;;3.10;1.83;;;;;;;16.14;85.58;93029.34;5069135;28;20044;-71
2023/07/29 00:08:23;;;;;;;3.45;1.95;;;;;;;16.15;85.66;93024.94;5068278;28;20048;-71
2023/07/29 00:10:50;;;;;;;3.03;1.95;;;;;;;16.09;85.94;93034.50;5068060;28;20044;-71
2023/07/29 00:13:18;;;;;;;3.25;2.05;;;;;;;15.99;86.69;93027.44;5065726;28;20403;-71
2023/07/29 00:15:45;;;;;;;2.35;1.50;;;;;;;15.90;87.02;93016.72;5068857;28;20452;-71
2023/07/29 00:18:11;;;;;;;3.97;2.22;;;;;;;15.86;87.41;93015.66;5064026;28;20418;-71
2023/07/29 00:20:38;;;;;;;2.85;1.98;;;;;;;15.88;86.81;93015.41;5067966;28;20056;-71
2023/07/29 00:23:05;;;;;;;2.67;1.80;;;;;;;15.90;86.83;93021.13;5068461;28;20410;-72
2023/07/29 00:25:32;;;;;;;2.92;2.10;;;;;;;15.96;86.35;93012.38;5067052;28;20098;-72
2023/07/29 00:27:59;;;;;;;3.15;2.33;;;;;;;15.98;86.64;93004.38;5068163;28;20490;-72
2023/07/29 00:30:28;;;;;;;3.83;2.25;;;;;;;15.96;86.84;92996.06;5066207;28;20460;-72
2023/07/29 00:32:54;;;;;;;2.58;2.00;;;;;;;15.91;86.82;93004.53;5066950;28;20097;-72
2023/07/29 00:35:21;;;;;;;3.10;2.00;;;;;;;15.89;86.96;93006.59;5068024;28;20118;-72
2023/07/29 00:37:48;;;;;;;3.22;1.75;;;;;;;15.86;86.69;93002.69;5068595;28;20441;-72
2023/07/29 00:40:19;;;;;;;2.65;1.85;;;;;;;15.85;86.36;93008.13;5065621;28;20057;-72
2023/07/29 00:42:46;;;;;;;5.55;2.22;;;;;;;15.78;86.75;93003.13;5066973;28;20049;-72
2023/07/29 00:45:14;;;;;;;3.22;2.00;;;;;;;15.44;87.33;92964.53;5063937;28;20048;-72
2023/07/29 00:47:43;;;;;;;4.10;2.30;;;;;;;15.71;87.37;92998.19;5065505;28;20486;-72
2023/07/29 00:50:11;;;;;;;2.83;1.92;;;;;;;15.72;87.88;92998.94;5066119;28;20163;-72
2023/07/29 00:52:38;;;;;;;3.20;2.03;;;;;;;15.69;87.60;93005.41;5068352;28;20456;-72
2023/07/29 00:55:05;;;;;;;2.65;2.00;;;;;;;15.69;87.83;93005.41;5068915;28;20622;-72
2023/07/29 00:57:33;;;;;;;3.05;1.98;;;;;;;15.67;87.72;93006.66;5068499;28;20094;-72
2023/07/29 01:00:00;;;;;;;3.80;2.03;;;;;;;15.65;88.38;92991.41;5066235;28;20101;-72
2023/07/29 01:02:29;;;;;;;6.07;1.98;;;;;;;15.61;88.94;93000.69;5066882;28;20076;-72
2023/07/29 01:04:59;;;;;;;4.18;2.42;;;;;;;15.53;89.03;93004.50;5064782;28;20054;-72
2023/07/29 01:07:31;;;;;;;2.58;1.80;;;;;;;15.49;89.10;93001.63;5068379;28;20071;-72
2023/07/29 01:10:03;;;;;;;3.50;2.10;;;;;;;15.48;89.20;92994.88;5068402;28;20056;-72
2023/07/29 01:12:37;;;;;;;3.53;2.30;;;;;;;15.46;89.67;92994.34;5068177;28;20563;-72
2023/07/29 01:15:12;;;;;;;3.55;2.28;;;;;;;15.44;88.95;92998.19;5067755;28;20131;-72
2023/07/29 01:17:43;;;;;;;3.40;2.25;;;;;;;15.41;89.46;92996.88;5068028;28;20404;-72
2023/07/29 01:20:16;;;;;;;2.88;2.08;;;;;;;15.35;89.37;92990.88;5067019;28;20509;-72
2023/07/29 01:22:43;;;;;;;3.22;1.92;;;;;;;15.34;90.46;92991.91;5067103;28;20525;-72
2023/07/29 01:25:11;;;;;;;3.97;2.30;;;;;;;15.35;90.83;92995.25;5064350;28;20049;-72
2023/07/29 01:27:38;;;;;;;3.45;2.17;;;;;;;15.29;90.94;93002.22;5067864;28;20048;-71
2023/07/29 01:30:06;;;;;;;3.60;2.25;;;;;;;15.31;90.73;92994.97;5066776;28;20044;-71
2023/07/29 01:32:39;;;;;;;3.50;2.58;;;;;;;15.31;90.04;93005.31;5068379;28;20044;-72
2023/07/29 01:35:16;;;;;;;2.97;1.80;;;;;;;15.29;90.48;93001.41;5064927;28;20045;-71
2023/07/29 01:37:49;;;;;;;3.53;2.05;;;;;;;15.24;90.29;92999.56;5067607;28;20044;-71
2023/07/29 01:40:19;;;;;;;3.88;2.65;;;;;;;15.17;91.50;92992.00;5067979;28;20488;-72
2023/07/29 01:42:46;;;;;;;7.78;2.63;;;;;;;15.16;91.93;92995.59;5064682;28;20546;-71
2023/07/29 01:45:13;;;;;;;3.78;1.95;;;;;;;15.14;92.23;92999.47;5067876;28;20491;-71
2023/07/29 01:47:41;;;;;;;2.78;1.73;;;;;;;15.14;91.28;92995.06;5067467;28;20094;-71
2023/07/29 01:50:09;;;;;;;3.63;2.25;;;;;;;15.15;91.10;92995.84;5065897;28;20048;-72
2023/07/29 01:52:36;;;;;;;3.35;1.95;;;;;;;15.10;91.37;92994.00;5067094;28;20048;-71
2023/07/29 01:55:03;;;;;;;3.25;2.17;;;;;;;15.12;91.37;92989.34;5067242;28;20139;-72
2023/07/29 01:57:31;;;;;;;3.50;2.33;;;;;;;15.03;91.71;92983.03;5067270;28;20126;-72
2023/07/29 01:59:57;;;;;;;3.63;2.70;;;;;;;14.99;91.92;92993.09;5067129;28;20551;-72
2023/07/29 02:02:24;;;;;;;3.33;2.40;;;;;;;14.99;91.45;92993.09;5067687;28;20045;-72
2023/07/29 02:04:52;;;;;;;3.78;2.10;;;;;;;14.95;92.04;92992.78;5063072;28;20041;-72
2023/07/29 02:07:19;;;;;;;3.47;2.30;;;;;;;14.93;92.12;92997.44;5064703;28;20045;-72
2023/07/29 02:09:46;;;;;;;3.50;2.42;;;;;;;14.83;91.66;92979.22;5066432;28;20052;-72
2023/07/29 02:12:12;;;;;;;3.22;2.20;;;;;;;14.94;91.76;92999.00;5067791;28;20045;-72
2023/07/29 02:14:41;;;;;;;3.20;2.30;;;;;;;14.96;92.08;93001.34;5066835;28;20040;-72
2023/07/29 02:17:08;;;;;;;4.97;2.53;;;;;;;14.89;91.98;92996.34;5067265;28;20082;-72
2023/07/29 02:19:35;;;;;;;3.92;2.17;;;;;;;14.81;92.86;93002.72;5062355;28;20406;-72
2023/07/29 02:22:02;;;;;;;3.83;2.55;;;;;;;14.81;92.22;93000.13;5067607;28;20048;-72
2023/07/29 02:24:28;;;;;;;2.95;2.00;;;;;;;14.76;93.44;93007.84;5067934;28;20075;-71
2023/07/29 02:26:55;;;;;;;4.05;2.78;;;;;;;14.69;95.01;93000.22;5065857;28;20494;-71
2023/07/29 02:29:22;;;;;;;3.10;2.30;;;;;;;14.64;94.88;93004.56;5063116;28;20580;-72
2023/07/29 02:31:50;;;;;;;3.53;2.17;;;;;;;14.61;94.58;92992.09;5067096;28;20050;-72
2023/07/29 02:34:17;;;;;;;3.00;2.30;;;;;;;14.64;94.78;93000.19;5066554;28;20044;-72
2023/07/29 02:36:45;;;;;;;3.00;2.10;;;;;;;14.66;94.45;93002.50;5066963;28;20044;-72
2023/07/29 02:39:12;;;;;;;2.78;2.13;;;;;;;14.67;94.60;93004.06;5066960;28;20148;-71
2023/07/29 02:41:38;;;;;;;3.10;2.20;;;;;;;14.67;94.24;93002.25;5066545;28;20831;-72
2023/07/29 02:44:06;;;;;;;3.30;2.30;;;;;;;14.65;94.36;93000.94;5065567;28;20547;-72
2023/07/29 02:46:33;;;;;;;3.67;2.45;;;;;;;14.65;94.32;93006.91;5066969;28;20328;-72
2023/07/29 02:49:03;;;;;;;4.60;2.58;;;;;;;14.64;94.27;93004.56;5067010;28;20056;-72
2023/07/29 02:51:29;;;;;;;3.85;2.08;;;;;;;14.60;94.27;93006.84;5062098;28;20075;-72
2023/07/29 02:53:56;;;;;;;3.95;2.50;;;;;;;14.54;94.74;93012.97;5065496;28;20551;-72
2023/07/29 02:56:23;;;;;;;3.15;2.50;;;;;;;14.48;95.68;93011.34;5066371;28;20048;-72
2023/07/29 02:58:51;;;;;;;3.40;2.30;;;;;;;14.47;95.16;93007.97;5064472;28;20045;-72
2023/07/29 03:01:18;;;;;;;4.22;2.28;;;;;;;14.47;95.77;93010.53;5066123;28;20045;-72
2023/07/29 03:03:44;;;;;;;9.50;2.38;;;;;;;14.49;95.74;93016.25;5063184;28;20063;-72
2023/07/29 03:06:15;;;;;;;4.00;2.58;;;;;;;14.43;95.17;93010.25;5064269;28;20037;-72
2023/07/29 03:08:41;;;;;;;3.72;2.22;;;;;;;14.47;95.44;93013.13;5065431;28;20142;-72
2023/07/29 03:11:10;;;;;;;5.40;2.35;;;;;;;14.47;95.42;93018.31;5066225;28;20094;-72
2023/07/29 03:13:36;;;;;;;4.63;2.38;;;;;;;14.46;95.93;93014.16;5064662;28;20498;-72
2023/07/29 03:16:07;;;;;;;8.15;3.03;;;;;;;14.41;96.87;93017.44;5066445;28;20048;-72
2023/07/29 03:18:34;;;;;;;4.65;2.25;;;;;;;14.38;96.05;93004.22;5065941;28;20141;-72
2023/07/29 03:21:01;;;;;;;4.30;2.40;;;;;;;14.37;95.79;93005.25;5063603;28;20050;-72
2023/07/29 03:23:30;;;;;;;3.95;2.38;;;;;;;14.39;96.61;93016.91;5066541;28;20135;-72
2023/07/29 03:25:58;;;;;;;5.43;2.53;;;;;;;14.41;96.25;93012.25;5063826;28;20114;-72
2023/07/29 03:28:27;;;;;;;3.50;2.50;;;;;;;14.28;96.21;92991.94;5063377;28;20086;-72
2023/07/29 03:30:53;;;;;;;4.40;2.60;;;;;;;14.40;96.36;93009.94;5061668;28;20087;-72
2023/07/29 03:33:20;;;;;;;4.65;2.65;;;;;;;14.37;96.49;93013.00;5063063;28;20044;-72
2023/07/29 03:35:47;;;;;;;4.50;2.38;;;;;;;14.37;96.84;93007.81;5064021;28;20044;-72
2023/07/29 03:38:14;;;;;;;3.00;2.20;;;;;;;14.35;96.31;93010.63;5065936;28;20044;-72
2023/07/29 03:40:43;;;;;;;4.68;2.80;;;;;;;14.37;97.47;93008.63;5064823;28;20049;-72
2023/07/29 03:43:10;;;;;;;5.53;2.53;;;;;;;14.38;96.91;93010.16;5060897;28;20619;-72
2023/07/29 03:45:38;;;;;;;4.47;2.67;;;;;;;14.39;96.88;93009.16;5060554;28;20049;-72
2023/07/29 03:48:05;;;;;;;4.68;2.45;;;;;;;14.38;97.13;93004.22;5066009;28;20048;-72
2023/07/29 03:50:32;;;;;;;5.57;3.15;;;;;;;14.38;97.40;93006.78;5062818;28;20045;-72
2023/07/29 03:52:58;;;;;;;9.50;3.28;;;;;;;14.34;97.94;93019.41;5064994;28;20049;-72
2023/07/29 03:55:25;;;;;;;5.47;2.80;;;;;;;14.36;97.75;93014.81;5062382;28;20044;-72
2023/07/29 03:57:53;;;;;;;4.43;2.40;;;;;;;14.34;98.47;93009.06;5062718;28;20448;-72
2023/07/29 04:00:20;;;;;;;6.78;2.88;;;;;;;14.33;98.33;93010.09;5064498;28;20126;-72
2023/07/29 04:02:47;;;;;;;6.88;2.80;;;;;;;14.29;98.94;93009.78;5061236;28;20509;-72
2023/07/29 04:05:13;;;;;;;3.00;2.30;;;;;;;14.34;98.85;93003.16;5059384;28;20161;-72
2023/07/29 04:07:41;;;;;;;5.47;2.90;;;;;;;14.28;99.51;92994.53;5064046;28;20045;-72
2023/07/29 04:10:09;;;;;;;4.97;3.03;;;;;;;14.45;98.64;93012.59;5061404;28;20050;-72
2023/07/29 04:12:35;;;;;;;3.38;2.45;;;;;;;14.54;98.20;93015.56;5059885;28;20166;-72
2023/07/29 04:15:04;;;;;;;5.78;3.05;;;;;;;14.63;97.63;93019.28;5063224;28;20048;-72
2023/07/29 04:17:31;;;;;;;11.68;3.63;;;;;;;14.67;98.84;93015.19;5059420;28;20985;-72
2023/07/29 04:19:57;;;;;;;6.47;2.90;;;;;;;14.72;97.92;93019.63;5060816;28;20044;-72
2023/07/29 04:22:24;;;;;;;3.72;2.80;;;;;;;14.78;98.85;93023.09;5061804;28;20422;-72
2023/07/29 04:24:51;;;;;;;8.80;3.08;;;;;;;14.80;97.83;93013.28;5059652;28;20125;-72
2023/07/29 04:27:17;;;;;;;7.60;3.60;;;;;;;14.87;97.41;93016.50;5058638;28;20468;-72
2023/07/29 04:29:44;;;;;;;7.32;3.35;;;;;;;14.95;97.06;93020.47;5059326;28;20045;-72
2023/07/29 04:32:12;;;;;;;6.05;3.15;;;;;;;14.98;97.53;93012.22;5063616;28;20055;-72
2023/07/29 04:34:39;;;;;;;6.50;3.60;;;;;;;15.05;97.12;93009.47;5059463;28;20123;-72
2023/07/29 04:37:06;;;;;;;10.82;4.60;;;;;;;15.07;96.80;93013.38;5058868;28;20044;-72
2023/07/29 04:39:33;;;;;;;9.48;3.50;;;;;;;15.16;96.65;93021.47;5059226;28;20115;-72
2023/07/29 04:42:00;;;;;;;5.93;3.13;;;;;;;15.18;95.77;93021.25;5060128;28;20051;-72
2023/07/29 04:44:27;;;;;;;5.53;3.10;;;;;;;15.31;95.92;93022.66;5064315;28;20575;-72
2023/07/29 04:46:54;;;;;;;7.57;2.97;;;;;;;15.36;96.06;93012.34;5061769;28;20102;-72
2023/07/29 04:49:22;;;;;;;7.35;3.17;;;;;;;15.39;95.38;93022.22;5067196;28;20563;-72
2023/07/29 04:51:48;;;;;;;5.32;2.83;;;;;;;15.50;95.58;93025.69;5069095;28;20102;-72
2023/07/29 04:54:15;;;;;;;5.50;3.30;;;;;;;15.61;95.07;93026.56;5065796;28;20118;-72
2023/07/29 04:56:42;;;;;;;5.00;2.97;;;;;;;15.68;95.12;93031.53;5065831;28;20098;-72
2023/07/29 04:59:09;;;;;;;4.70;3.00;;;;;;;15.69;94.41;93031.28;5068519;28;20045;-72
2023/07/29 05:01:35;;;;;;;6.55;2.95;;;;;;;15.78;93.72;93026.44;5066769;28;20131;-72
2023/07/29 05:04:03;;;;;;;5.65;3.08;;;;;;;15.87;94.04;93029.38;5067016;28;20493;-72
2023/07/29 05:06:31;;;;;;;5.38;3.58;;;;;;;15.90;96.85;93027.09;5064652;28;20048;-72
2023/07/29 05:08:58;;;;;;;5.43;3.42;;;;;;;15.93;96.74;93035.41;5065627;28;20048;-72
2023/07/29 05:11:25;;;;;;;8.35;4.78;;;;;;;15.98;97.21;93032.88;5065422;28;20052;-72
2023/07/29 05:13:52;;;;;;;5.35;3.92;;;;;;;16.09;94.13;93039.69;5069319;28;20040;-72
2023/07/29 05:16:19;;;;;;;6.85;3.90;;;;;;;16.19;95.03;93038.97;5068227;28;20476;-72
2023/07/29 05:18:46;;;;;;;5.53;3.60;;;;;;;16.33;97.11;93039.31;5068710;28;20094;-72
2023/07/29 05:21:14;;;;;;;5.88;3.42;;;;;;;16.40;93.93;93039.88;5068673;28;20055;-72
2023/07/29 05:23:42;;;;;;;5.13;3.58;;;;;;;16.53;96.71;93036.06;5068568;28;20125;-72
2023/07/29 05:26:09;;;;;;;4.57;3.20;;;;;;;16.53;95.00;93038.66;5064401;28;20094;-72
2023/07/29 05:28:35;;;;;;;4.90;3.00;;;;;;;16.62;95.12;93038.19;5068792;28;20439;-72
2023/07/29 05:31:02;;;;;;;5.10;2.70;;;;;;;16.67;94.18;93033.03;5067766;28;20595;-72
2023/07/29 05:33:29;;;;;;;5.07;3.10;;;;;;;16.85;91.36;93039.59;5068358;28;20048;-72
2023/07/29 05:35:56;;;;;;;7.50;3.35;;;;;;;17.01;91.90;93037.06;5063287;28;20109;-72
2023/07/29 05:38:22;;;;;;;5.00;3.03;;;;;;;17.07;90.57;93041.28;5062802;28;20328;-72
2023/07/29 05:40:50;;;;;;;4.85;3.30;;;;;;;17.25;89.81;93049.66;5068573;28;20048;-72
2023/07/29 05:43:17;;;;;;;9.95;7.75;;;;;;;17.41;91.21;93043.44;5067495;28;20056;-72
2023/07/29 05:45:44;;;;;;;9.15;4.03;;;;;;;17.59;89.39;93042.19;5067968;28;20894;-73
2023/07/29 05:48:11;;;;;;;6.88;3.13;;;;;;;17.81;87.81;93048.97;5068062;28;20052;-72
2023/07/29 05:50:37;;;;;;;5.05;2.95;;;;;;;18.03;86.05;93048.75;5067406;28;20056;-72
2023/07/29 05:53:04;;;;;;;7.30;3.10;;;;;;;18.27;81.15;93045.66;5064189;28;20052;-72
2023/07/29 05:55:31;;;;;;;6.85;2.88;;;;;;;18.47;78.12;93044.03;5064438;28;20540;-72
2023/07/29 05:57:59;;;;;;;3.92;2.25;;;;;;;18.70;76.85;93049.72;5067710;28;20044;-72
2023/07/29 06:00:25;;;;;;;6.13;2.38;;;;;;;18.87;78.76;93043.44;5062378;28;20041;-72
2023/07/29 06:02:52;;;;;;;4.95;2.92;;;;;;;19.17;75.99;93047.00;5065069;28;20048;-72
2023/07/29 06:05:19;;;;;;;5.00;2.30;;;;;;;19.45;76.12;93042.94;5064390;28;20048;-72
2023/07/29 06:07:47;;;;;;;6.55;2.40;;;;;;;19.72;72.37;93052.19;5067502;28;20048;-72
2023/07/29 06:10:17;;;;;;;6.95;2.38;;;;;;;20.00;72.27;93049.94;5065383;28;20478;-72
2023/07/29 06:12:44;;;;;;;6.32;2.70;;;;;;;20.25;68.67;93050.00;5064517;28;20094;-72
2023/07/29 06:15:12;;;;;;;5.22;2.88;;;;;;;20.61;69.96;93041.88;5066641;28;20094;-72
2023/07/29 06:17:39;;;;;;;5.75;2.80;;;;;;;20.91;69.32;93031.38;5067102;28;20056;-72
2023/07/29 06:20:07;;;;;;;3.92;2.22;;;;;;;21.29;67.60;93028.84;5064658;28;20036;-72
2023/07/29 06:22:34;;;;;;;3.50;2.08;;;;;;;21.67;64.03;93025.50;5066053;28;20279;-72
2023/07/29 06:25:00;;;;;;;4.70;2.95;;;;;;;21.95;62.73;93028.25;5061514;28;20494;-72
2023/07/29 06:27:27;;;;;;;5.15;3.42;;;;;;;22.26;62.25;93025.13;5067182;28;20044;-72
2023/07/29 06:29:54;;;;;;;5.75;3.03;;;;;;;22.56;62.46;93011.84;5063450;28;20102;-72
2023/07/29 06:32:22;;;;;;;4.97;2.40;;;;;;;22.79;58.63;93012.72;5065624;28;20453;-72
2023/07/29 06:34:49;;;;;;;8.30;2.80;;;;;;;23.08;56.64;93022.13;5065713;28;20040;-72
2023/07/29 06:37:15;;;;;;;8.38;2.40;;;;;;;23.31;55.78;93016.97;5066636;28;20090;-72
2023/07/29 06:39:42;;;;;;;6.03;2.42;;;;;;;23.58;56.74;93020.59;5066659;28;20044;-72
2023/07/29 06:42:09;;;;;;;7.22;3.22;;;;;;;23.61;54.43;93027.84;5066962;28;20048;-72
2023/07/29 06:44:35;;;;;;;4.75;2.35;;;;;;;23.82;53.54;93031.88;5063314;28;20461;-72
2023/07/29 06:47:02;;;;;;;6.32;2.38;;;;;;;24.18;55.37;93022.41;5063308;28;20040;-72
2023/07/29 06:49:30;;;;;;;3.80;2.17;;;;;;;24.42;54.08;93012.38;5066407;28;20110;-72
2023/07/29 06:51:57;;;;;;;4.38;2.28;;;;;;;24.83;53.06;93017.66;5065687;28;20090;-72
2023/07/29 06:54:26;;;;;;;4.20;2.15;;;;;;;25.25;52.57;93027.81;5060030;28;20098;-72
2023/07/29 06:56:53;;;;;;;4.88;2.78;;;;;;;25.54;50.62;93028.34;5063232;28;20051;-72
2023/07/29 06:59:19;;;;;;;6.70;2.38;;;;;;;25.20;49.56;93033.22;5066542;28;20064;-72
2023/07/29 07:01:47;;;;;;;16.77;2.85;;;;;;;24.92;51.29;93030.81;5064272;28;20661;-72
2023/07/29 07:04:13;;;;;;;6.82;2.50;;;;;;;24.85;50.50;93027.88;5064628;28;20048;-72
2023/07/29 07:06:42;;;;;;;7.85;3.05;;;;;;;24.74;52.05;93008.94;5064525;28;20507;-72
2023/07/29 07:09:08;;;;;;;8.32;2.38;;;;;;;24.44;51.27;93025.19;5064106;28;20048;-72
2023/07/29 07:11:35;;;;;;;5.68;2.55;;;;;;;24.32;51.45;93023.13;5065262;28;20567;-72
2023/07/29 07:14:02;;;;;;;10.02;3.53;;;;;;;24.72;52.40;93013.72;5061355;28;20040;-72
2023/07/29 07:16:30;;;;;;;16.00;4.72;;;;;;;25.09;52.41;93015.09;5065802;28;20053;-72
2023/07/29 07:18:57;;;;;;;15.30;4.85;;;;;;;25.36;51.33;93017.78;5065040;28;20433;-72
2023/07/29 07:21:24;;;;;;;16.77;4.57;;;;;;;25.93;49.97;93015.34;5063695;28;20102;-72
2023/07/29 07:23:52;;;;;;;28.67;7.82;;;;;;;26.47;49.61;93011.56;5065935;28;20403;-72
2023/07/29 07:26:18;;;;;;;27.55;5.63;;;;;;;26.85;47.80;93008.16;5065384;28;20048;-72
2023/07/29 07:28:45;;;;;;;18.67;5.63;;;;;;;27.03;47.28;92984.38;5065301;28;20053;-72
2023/07/29 07:31:12;;;;;;;17.00;4.43;;;;;;;27.24;45.90;93012.63;5062828;28;20563;-72
2023/07/29 07:33:39;;;;;;;13.48;4.00;;;;;;;26.61;46.53;93008.72;5062948;28;20037;-72
2023/07/29 07:36:06;;;;;;;10.93;4.28;;;;;;;26.86;47.92;93007.06;5064489;28;20044;-72
2023/07/29 07:38:32;;;;;;;13.68;4.00;;;;;;;27.16;46.75;93004.47;5065346;28;20040;-72
2023/07/29 07:41:00;;;;;;;11.98;4.13;;;;;;;27.66;46.47;93006.63;5066665;28;20105;-72
2023/07/29 07:43:27;;;;;;;8.80;2.70;;;;;;;27.65;46.03;93011.16;5063121;28;20044;-72
2023/07/29 07:45:59;;;;;;;8.95;2.92;;;;;;;27.58;46.68;93003.75;5061814;28;20052;-72
2023/07/29 07:48:26;;;;;;;12.10;3.53;;;;;;;27.38;46.00;92992.06;5062008;28;20050;-72
2023/07/29 07:50:52;;;;;;;11.77;4.13;;;;;;;28.00;46.32;92999.53;5062036;28;20045;-72
2023/07/29 07:53:20;;;;;;;13.55;4.32;;;;;;;28.14;45.15;92999.25;5065842;28;20110;-72
2023/07/29 07:55:47;;;;;;;14.20;3.47;;;;;;;28.40;44.51;92990.28;5065597;28;20084;-72
2023/07/29 07:58:15;;;;;;;10.75;3.50;;;;;;;28.63;44.40;92993.31;5063518;28;20366;-72
2023/07/29 08:00:41;;;;;;;10.00;3.33;;;;;;;29.02;42.98;92987.69;5062165;28;20513;-72
2023/07/29 08:03:08;;;;;;;5.70;2.83;;;;;;;29.15;43.72;92990.34;5061363;28;20114;-72
2023/07/29 08:05:35;;;;;;;5.03;3.03;;;;;;;29.13;43.86;92995.19;5064141;28;20041;-72
2023/07/29 08:08:01;;;;;;;4.47;2.20;;;;;;;28.33;44.10;93001.38;5062310;28;20044;-72
2023/07/29 08:10:28;;;;;;;9.63;2.22;;;;;;;28.39;43.46;92992.19;5063982;28;20052;-72
2023/07/29 08:12:55;;;;;;;4.45;1.95;;;;;;;28.95;42.90;92998.06;5062363;28;20044;-72
2023/07/29 08:15:23;;;;;;;4.03;1.85;;;;;;;28.77;42.49;93000.91;5063791;28;20044;-73
2023/07/29 08:17:50;;;;;;;5.90;1.95;;;;;;;28.98;42.22;93004.56;5065808;28;20048;-73
2023/07/29 08:20:16;;;;;;;5.40;2.22;;;;;;;28.25;43.48;93005.69;5066080;28;20530;-73
2023/07/29 08:22:43;;;;;;;6.03;1.90;;;;;;;27.94;44.26;92998.94;5066730;28;20490;-73
2023/07/29 08:25:10;;;;;;;6.32;1.98;;;;;;;27.95;45.23;93005.00;5063984;28;20102;-73
2023/07/29 08:27:37;;;;;;;5.95;1.90;;;;;;;28.49;44.03;93008.69;5067707;28;20097;-73
2023/07/29 08:30:04;;;;;;;3.75;1.77;;;;;;;28.61;43.14;92995.47;5067058;28;20157;-73
2023/07/29 08:32:32;;;;;;;5.50;1.65;;;;;;;28.98;43.95;92989.50;5065186;28;20044;-73
2023/07/29 08:34:59;;;;;;;3.83;1.67;;;;;;;29.28;43.19;92994.50;5066187;28;20044;-73
2023/07/29 08:37:26;;;;;;;7.25;2.22;;;;;;;29.74;41.94;92996.97;5066824;28;20048;-72
2023/07/29 08:39:54;;;;;;;5.72;1.80;;;;;;;30.12;42.78;92992.31;5066582;28;20392;-73
2023/07/29 08:42:23;;;;;;;8.77;2.28;;;;;;;30.58;42.68;92990.41;5068473;28;20059;-73
2023/07/29 08:44:55;;;;;;;7.95;1.98;;;;;;;30.89;40.89;92991.50;5065839;28;20048;-73
2023/07/29 08:47:21;;;;;;;2.67;1.50;;;;;;;30.92;41.49;92996.13;5061899;28;20497;-73
2023/07/29 08:49:53;;;;;;;4.43;1.52;;;;;;;31.17;38.86;92988.72;5067737;28;20485;-73
2023/07/29 08:52:20;;;;;;;4.28;1.27;;;;;;;31.01;38.28;92994.03;5065379;28;20086;-73
2023/07/29 08:54:48;;;;;;;2.75;1.40;;;;;;;30.40;40.00;92990.69;5067744;28;20296;-73
2023/07/29 08:57:15;;;;;;;5.18;1.10;;;;;;;31.02;39.37;92990.31;5066308;28;20517;-74
2023/07/29 08:59:42;;;;;;;2.05;1.10;;;;;;;31.06;38.68;92980.53;5066880;28;20086;-73
2023/07/29 09:02:09;;;;;;;2.78;1.15;;;;;;;31.71;38.95;92983.00;5066554;28;20098;-73
2023/07/29 09:04:36;;;;;;;2.65;1.48;;;;;;;31.24;38.19;92984.69;5067010;28;20121;-73
2023/07/29 09:07:06;;;;;;;4.28;1.30;;;;;;;30.40;39.43;92978.25;5066690;28;20049;-73
2023/07/29 09:09:33;;;;;;;2.33;1.10;;;;;;;30.87;39.44;92977.84;5067278;28;20055;-74
2023/07/29 09:12:00;;;;;;;2.97;1.20;;;;;;;30.12;38.38;92976.41;5064749;28;20044;-74
2023/07/29 09:14:27;;;;;;;1.95;0.80;;;;;;;30.70;38.94;92971.78;5064985;28;20041;-73
2023/07/29 09:16:54;;;;;;;2.10;0.90;;;;;;;30.99;38.04;92972.41;5065836;28;20418;-73
2023/07/29 09:19:21;;;;;;;2.35;1.00;;;;;;;31.20;38.22;92971.34;5067847;28;20049;-74
2023/07/29 09:21:48;;;;;;;2.15;0.80;;;;;;;31.22;37.15;92958.50;5064353;28;20784;-74
2023/07/29 09:24:19;;;;;;;1.30;0.63;;;;;;;31.40;36.39;92971.38;5064176;28;20972;-73
2023/07/29 09:26:50;;;;;;;2.40;1.00;;;;;;;31.69;36.68;92971.97;5066956;28;20044;-74
2023/07/29 09:29:17;;;;;;;2.45;0.90;;;;;;;32.04;36.15;92973.00;5066701;28;20117;-73
2023/07/29 09:31:43;;;;;;;2.63;0.60;;;;;;;32.31;35.60;92968.56;5067221;28;20048;-72
2023/07/29 09:34:10;;;;;;;6.82;1.00;;;;;;;32.33;35.23;92953.03;5067469;28;20403;-72
2023/07/29 09:36:37;;;;;;;4.78;0.82;;;;;;;32.23;36.07;92965.03;5062999;28;20053;-72
2023/07/29 09:39:04;;;;;;;1.45;0.70;;;;;;;31.43;34.95;92960.84;5069481;28;20044;-72
2023/07/29 09:41:32;;;;;;;1.85;0.68;;;;;;;31.51;34.82;92961.00;5066764;28;20101;-72
2023/07/29 09:44:00;;;;;;;2.78;0.63;;;;;;;31.50;34.96;92946.19;5065150;28;20044;-72
2023/07/29 09:46:34;;;;;;;1.20;0.52;;;;;;;31.10;35.53;92959.38;5062921;28;20407;-71
2023/07/29 09:49:00;;;;;;;1.60;0.85;;;;;;;30.57;36.21;92952.50;5063930;28;20048;-72
2023/07/29 09:51:27;;;;;;;8.38;1.58;;;;;;;31.32;37.22;92949.25;5065972;28;20044;-72
2023/07/29 09:53:54;;;;;;;2.58;0.90;;;;;;;31.78;35.30;92958.47;5064089;28;20056;-73
2023/07/29 09:56:26;;;;;;;1.63;0.60;;;;;;;31.61;35.27;92955.16;5062948;28;20052;-73
2023/07/29 09:58:57;;;;;;;2.22;0.70;;;;;;;32.10;35.40;92951.13;5063369;28;20048;-73
2023/07/29 10:01:24;;;;;;;3.30;0.88;;;;;;;32.44;35.15;92945.25;5064123;28;20659;-73
2023/07/29 10:03:52;;;;;;;2.55;0.60;;;;;;;32.78;33.84;92944.63;5065185;28;20044;-74
2023/07/29 10:06:19;;;;;;;1.75;0.70;;;;;;;33.22;33.75;92931.94;5066652;28;20048;-73
2023/07/29 10:08:46;;;;;;;0.93;0.40;;;;;;;33.49;33.01;92932.66;5065336;28;20102;-73
2023/07/29 10:11:13;;;;;;;4.50;0.75;;;;;;;33.67;31.50;92935.56;5064446;28;20083;-74
2023/07/29 10:13:40;;;;;;;2.72;0.45;;;;;;;33.43;30.65;92932.22;5065031;28;20529;-73
2023/07/29 10:16:09;;;;;;;1.58;0.65;;;;;;;32.20;31.42;92936.47;5063178;28;20048;-73
2023/07/29 10:18:36;;;;;;;1.27;0.60;;;;;;;31.80;32.28;92933.09;5064853;28;20122;-73
2023/07/29 10:21:03;;;;;;;1.85;0.50;;;;;;;31.35;31.54;92923.91;5063346;28;20052;-72
2023/07/29 10:23:38;;;;;;;1.27;0.45;;;;;;;31.98;32.27;92927.41;5062396;28;20060;-72
2023/07/29 10:26:08;;;;;;;2.67;0.55;;;;;;;31.60;32.05;92914.53;5059106;28;21330;-72
2023/07/29 10:28:40;;;;;;;3.55;0.60;;;;;;;31.18;30.70;92923.16;5060383;28;20110;-72
2023/07/29 10:31:09;;;;;;;0.95;0.50;;;;;;;31.19;31.47;92928.13;5060320;28;20134;-73
2023/07/29 10:33:36;;;;;;;2.15;0.60;;;;;;;31.71;32.82;92917.38;5060512;28;20109;-72
2023/07/29 10:36:04;;;;;;;3.17;1.05;;;;;;;32.29;29.95;92920.31;5059955;28;20145;-72
2023/07/29 10:38:31;;;;;;;1.30;0.52;;;;;;;32.34;28.27;92893.44;5059305;28;20052;-72
2023/07/29 10:41:00;;;;;;;0.95;0.32;;;;;;;32.12;28.49;92914.34;5058458;28;20594;-72
2023/07/29 10:43:28;;;;;;;2.55;0.60;;;;;;;31.36;27.51;92906.84;5060219;28;20127;-71
2023/07/29 10:45:57;;;;;;;1.13;0.40;;;;;;;31.22;28.72;92908.09;5060473;28;20049;-72
2023/07/29 10:48:44;;;;;;;1.38;0.28;;;;;;;31.76;29.07;92908.38;5063321;28;20044;-73
2023/07/29 10:51:29;;;;;;;0.90;0.40;;;;;;;31.74;30.76;92907.97;5061202;28;20049;-73
2023/07/29 10:53:56;;;;;;;;;;;;;;;31.73;29.58;92901.13;5060988;28;20129;-73
2023/07/29 10:56:29;;;;;;;1.50;0.52;;;;;;;32.30;30.00;92899.81;5058091;28;19924;-72
2023/07/29 10:58:57;;;;;;;2.60;0.70;;;;;;;32.65;29.28;92896.97;5058394;28;20163;-72
2023/07/29 11:01:29;;;;;;;3.30;0.50;;;;;;;32.99;27.88;92893.66;5059794;28;20524;-72
2023/07/29 11:04:23;;;;;;;1.55;0.50;;;;;;;32.21;28.92;92884.88;5060136;28;20135;-73
2023/07/29 11:07:22;;;;;;;1.10;0.38;;;;;;;31.99;29.32;92894.41;5059486;28;20049;-73
2023/07/29 11:09:58;;;;;;;0.88;0.40;;;;;;;31.87;29.45;92887.34;5059492;28;20166;-73
2023/07/29 11:12:42;;;;;;;1.10;0.47;;;;;;;32.40;29.43;92897.31;5058844;28;20088;-73
2023/07/29 11:15:18;;;;;;;2.50;0.95;;;;;;;32.70;29.75;92885.25;5060372;28;20045;-73
2023/07/29 11:17:47;;;;;;;2.92;0.68;;;;;;;33.28;29.54;92888.66;5061601;28;20056;-73
2023/07/29 11:20:16;;;;;;;2.65;1.17;;;;;;;33.77;28.89;92886.19;5060324;28;20087;-74
2023/07/29 11:22:43;;;;;;;1.17;0.52;;;;;;;33.87;29.77;92886.66;5060131;28;20056;-74
2023/07/29 11:25:11;;;;;;;2.15;0.60;;;;;;;34.35;28.46;92884.06;5060907;28;20473;-74
2023/07/29 11:27:38;;;;;;;1.50;0.57;;;;;;;34.74;26.20;92895.38;5059156;28;20161;-73
2023/07/29 11:30:07;;;;;;;1.30;0.43;;;;;;;34.27;26.51;92889.69;5058752;28;20098;-74
2023/07/29 11:32:35;;;;;;;2.08;0.50;;;;;;;33.13;27.26;92887.72;5059863;28;20585;-73
2023/07/29 11:35:07;;;;;;;1.60;0.65;;;;;;;33.40;26.88;92863.72;5059608;28;20794;-74
2023/07/29 11:37:36;;;;;;;1.60;0.70;;;;;;;33.30;27.69;92877.66;5058727;28;20426;-74